sensor_id;sensor_type;location;lat;lon;timestamp;P1;durP1;ratioP1;P2;durP2;ratioP2
66139;SDS011;52945;51.908;8.364;2023-12-20T00:02:04;12.10;;;4.55;;
66139;SDS011;52945;51.908;8.364;2023-12-20T00:05:05;8.48;;;3.97;;
66139;SDS011;52945;51.908;8.364;2023-12-20T00:08:06;11.98;;;4.53;;
66139;SDS011;52945;51.908;8.364;2023-12-20T00:11:07;11.65;;;4.50;;
66139;SDS011;52945;51.908;8.364;2023-12-20T00:14:07;10.18;;;3.58;;
66139;SDS011;52945;51.908;8.364;2023-12-20T00:17:08;12.10;;;4.35;;
66139;SDS011;52945;51.908;8.364;2023-12-20T00:20:09;9.80;;;3.67;;
66139;SDS011;52945;51.908;8.364;2023-12-20T00:23:09;9.57;;;3.42;;
66139;SDS011;52945;51.908;8.364;2023-12-20T00:26:10;7.80;;;3.28;;
66139;SDS011;52945;51.908;8.364;2023-12-20T00:29:11;8.70;;;3.53;;
66139;SDS011;52945;51.908;8.364;2023-12-20T00:32:11;9.00;;;3.28;;
66139;SDS011;52945;51.908;8.364;2023-12-20T00:35:13;8.95;;;3.60;;
66139;SDS011;52945;51.908;8.364;2023-12-20T00:41:14;7.55;;;3.22;;
66139;SDS011;52945;51.908;8.364;2023-12-20T00:44:15;6.78;;;3.22;;
66139;SDS011;52945;51.908;8.364;2023-12-20T00:47:15;9.18;;;3.17;;
66139;SDS011;52945;51.908;8.364;2023-12-20T00:50:16;4.57;;;2.67;;
66139;SDS011;52945;51.908;8.364;2023-12-20T00:53:16;5.65;;;2.08;;
66139;SDS011;52945;51.908;8.364;2023-12-20T00:56:17;4.68;;;2.15;;
66139;SDS011;52945;51.908;8.364;2023-12-20T00:59:19;3.88;;;2.38;;
66139;SDS011;52945;51.908;8.364;2023-12-20T01:05:20;3.10;;;1.70;;
66139;SDS011;52945;51.908;8.364;2023-12-20T01:08:23;4.47;;;1.92;;
66139;SDS011;52945;51.908;8.364;2023-12-20T01:11:23;2.42;;;1.63;;
66139;SDS011;52945;51.908;8.364;2023-12-20T01:14:24;4.68;;;1.80;;
66139;SDS011;52945;51.908;8.364;2023-12-20T01:17:24;3.80;;;1.60;;
66139;SDS011;52945;51.908;8.364;2023-12-20T01:20:25;2.38;;;1.63;;
66139;SDS011;52945;51.908;8.364;2023-12-20T01:23:26;3.55;;;1.73;;
66139;SDS011;52945;51.908;8.364;2023-12-20T01:26:26;1.80;;;1.13;;
66139;SDS011;52945;51.908;8.364;2023-12-20T01:29:27;2.47;;;1.45;;
66139;SDS011;52945;51.908;8.364;2023-12-20T01:32:28;2.60;;;1.33;;
66139;SDS011;52945;51.908;8.364;2023-12-20T01:35:28;3.28;;;1.45;;
66139;SDS011;52945;51.908;8.364;2023-12-20T01:38:29;3.70;;;1.92;;
66139;SDS011;52945;51.908;8.364;2023-12-20T01:41:30;3.88;;;1.58;;
66139;SDS011;52945;51.908;8.364;2023-12-20T01:44:30;4.82;;;1.80;;
66139;SDS011;52945;51.908;8.364;2023-12-20T01:47:31;4.50;;;2.00;;
66139;SDS011;52945;51.908;8.364;2023-12-20T01:50:31;2.95;;;1.30;;
66139;SDS011;52945;51.908;8.364;2023-12-20T01:53:35;4.18;;;1.85;;
66139;SDS011;52945;51.908;8.364;2023-12-20T01:56:36;6.15;;;1.92;;
66139;SDS011;52945;51.908;8.364;2023-12-20T01:59:39;8.45;;;1.85;;
66139;SDS011;52945;51.908;8.364;2023-12-20T02:02:40;4.28;;;1.40;;
66139;SDS011;52945;51.908;8.364;2023-12-20T02:05:41;4.18;;;1.48;;
66139;SDS011;52945;51.908;8.364;2023-12-20T02:08:42;4.65;;;1.70;;
66139;SDS011;52945;51.908;8.364;2023-12-20T02:11:42;4.80;;;1.80;;
66139;SDS011;52945;51.908;8.364;2023-12-20T02:14:43;4.78;;;1.73;;
66139;SDS011;52945;51.908;8.364;2023-12-20T02:17:44;7.18;;;1.55;;
66139;SDS011;52945;51.908;8.364;2023-12-20T02:20:48;3.90;;;1.40;;
66139;SDS011;52945;51.908;8.364;2023-12-20T02:23:49;5.30;;;2.00;;
66139;SDS011;52945;51.908;8.364;2023-12-20T02:26:49;6.50;;;1.60;;
66139;SDS011;52945;51.908;8.364;2023-12-20T02:29:50;3.63;;;1.92;;
66139;SDS011;52945;51.908;8.364;2023-12-20T02:32:52;4.50;;;1.88;;
66139;SDS011;52945;51.908;8.364;2023-12-20T02:35:53;3.90;;;2.10;;
66139;SDS011;52945;51.908;8.364;2023-12-20T02:38:54;4.50;;;1.95;;
66139;SDS011;52945;51.908;8.364;2023-12-20T02:41:54;6.95;;;1.77;;
66139;SDS011;52945;51.908;8.364;2023-12-20T02:44:55;4.50;;;2.28;;
66139;SDS011;52945;51.908;8.364;2023-12-20T02:47:55;6.75;;;2.08;;
66139;SDS011;52945;51.908;8.364;2023-12-20T02:50:56;6.05;;;2.42;;
66139;SDS011;52945;51.908;8.364;2023-12-20T02:53:56;6.93;;;2.33;;
66139;SDS011;52945;51.908;8.364;2023-12-20T02:56:57;5.43;;;2.42;;
66139;SDS011;52945;51.908;8.364;2023-12-20T02:59:58;6.38;;;2.03;;
66139;SDS011;52945;51.908;8.364;2023-12-20T03:02:58;4.43;;;2.33;;
66139;SDS011;52945;51.908;8.364;2023-12-20T03:05:59;5.53;;;2.50;;
66139;SDS011;52945;51.908;8.364;2023-12-20T03:09:00;7.53;;;2.88;;
66139;SDS011;52945;51.908;8.364;2023-12-20T03:12:00;8.07;;;3.00;;
66139;SDS011;52945;51.908;8.364;2023-12-20T03:15:01;9.88;;;3.30;;
66139;SDS011;52945;51.908;8.364;2023-12-20T03:18:02;6.50;;;2.70;;
66139;SDS011;52945;51.908;8.364;2023-12-20T03:21:03;12.52;;;2.88;;
66139;SDS011;52945;51.908;8.364;2023-12-20T03:24:04;6.88;;;2.95;;
66139;SDS011;52945;51.908;8.364;2023-12-20T03:27:05;6.90;;;2.85;;
66139;SDS011;52945;51.908;8.364;2023-12-20T03:30:05;6.50;;;2.65;;
66139;SDS011;52945;51.908;8.364;2023-12-20T03:33:06;7.55;;;2.47;;
66139;SDS011;52945;51.908;8.364;2023-12-20T03:36:07;8.48;;;2.72;;
66139;SDS011;52945;51.908;8.364;2023-12-20T03:39:08;8.52;;;2.72;;
66139;SDS011;52945;51.908;8.364;2023-12-20T03:42:10;7.60;;;2.38;;
66139;SDS011;52945;51.908;8.364;2023-12-20T03:45:10;6.75;;;2.83;;
66139;SDS011;52945;51.908;8.364;2023-12-20T03:48:11;6.72;;;3.00;;
66139;SDS011;52945;51.908;8.364;2023-12-20T03:51:12;7.68;;;2.90;;
66139;SDS011;52945;51.908;8.364;2023-12-20T03:54:12;7.68;;;2.65;;
66139;SDS011;52945;51.908;8.364;2023-12-20T03:57:13;10.10;;;3.13;;
66139;SDS011;52945;51.908;8.364;2023-12-20T04:00:13;8.77;;;2.92;;
66139;SDS011;52945;51.908;8.364;2023-12-20T04:03:14;14.38;;;2.88;;
66139;SDS011;52945;51.908;8.364;2023-12-20T04:06:18;4.90;;;2.40;;
66139;SDS011;52945;51.908;8.364;2023-12-20T04:09:19;4.57;;;2.30;;
66139;SDS011;52945;51.908;8.364;2023-12-20T04:12:19;6.40;;;2.22;;
66139;SDS011;52945;51.908;8.364;2023-12-20T04:15:20;7.82;;;2.60;;
66139;SDS011;52945;51.908;8.364;2023-12-20T04:18:20;11.82;;;2.33;;
66139;SDS011;52945;51.908;8.364;2023-12-20T04:21:21;8.00;;;2.45;;
66139;SDS011;52945;51.908;8.364;2023-12-20T04:24:21;5.93;;;2.85;;
66139;SDS011;52945;51.908;8.364;2023-12-20T04:27:22;5.50;;;2.42;;
66139;SDS011;52945;51.908;8.364;2023-12-20T04:30:23;9.48;;;2.60;;
66139;SDS011;52945;51.908;8.364;2023-12-20T04:33:24;13.55;;;2.45;;
66139;SDS011;52945;51.908;8.364;2023-12-20T04:36:24;8.57;;;2.90;;
66139;SDS011;52945;51.908;8.364;2023-12-20T04:39:26;6.18;;;2.63;;
66139;SDS011;52945;51.908;8.364;2023-12-20T04:42:27;7.40;;;2.33;;
66139;SDS011;52945;51.908;8.364;2023-12-20T04:45:27;9.48;;;2.92;;
66139;SDS011;52945;51.908;8.364;2023-12-20T04:48:28;12.48;;;2.22;;
66139;SDS011;52945;51.908;8.364;2023-12-20T04:51:29;9.52;;;2.30;;
66139;SDS011;52945;51.908;8.364;2023-12-20T04:54:31;6.25;;;2.22;;
66139;SDS011;52945;51.908;8.364;2023-12-20T04:57:31;6.95;;;2.15;;
66139;SDS011;52945;51.908;8.364;2023-12-20T05:00:32;6.97;;;2.15;;
66139;SDS011;52945;51.908;8.364;2023-12-20T05:03:32;10.18;;;2.45;;
66139;SDS011;52945;51.908;8.364;2023-12-20T05:06:33;11.00;;;2.67;;
66139;SDS011;52945;51.908;8.364;2023-12-20T05:09:33;6.28;;;2.15;;
66139;SDS011;52945;51.908;8.364;2023-12-20T05:12:34;9.30;;;2.20;;
66139;SDS011;52945;51.908;8.364;2023-12-20T05:15:35;8.18;;;2.53;;
66139;SDS011;52945;51.908;8.364;2023-12-20T05:18:35;10.40;;;2.92;;
66139;SDS011;52945;51.908;8.364;2023-12-20T05:21:36;12.13;;;2.58;;
66139;SDS011;52945;51.908;8.364;2023-12-20T05:24:36;7.63;;;2.45;;
66139;SDS011;52945;51.908;8.364;2023-12-20T05:27:37;15.05;;;2.72;;
66139;SDS011;52945;51.908;8.364;2023-12-20T05:30:37;8.60;;;2.45;;
66139;SDS011;52945;51.908;8.364;2023-12-20T05:33:38;8.80;;;2.65;;
66139;SDS011;52945;51.908;8.364;2023-12-20T05:36:38;5.72;;;2.33;;
66139;SDS011;52945;51.908;8.364;2023-12-20T05:39:39;8.85;;;2.55;;
66139;SDS011;52945;51.908;8.364;2023-12-20T05:42:40;7.40;;;2.38;;
66139;SDS011;52945;51.908;8.364;2023-12-20T05:45:40;9.32;;;2.78;;
66139;SDS011;52945;51.908;8.364;2023-12-20T05:48:42;9.52;;;2.72;;
66139;SDS011;52945;51.908;8.364;2023-12-20T05:51:42;8.63;;;2.70;;
66139;SDS011;52945;51.908;8.364;2023-12-20T05:54:43;8.25;;;2.85;;
66139;SDS011;52945;51.908;8.364;2023-12-20T05:57:43;9.77;;;3.28;;
66139;SDS011;52945;51.908;8.364;2023-12-20T06:00:44;12.32;;;3.47;;
66139;SDS011;52945;51.908;8.364;2023-12-20T06:03:45;10.93;;;3.33;;
66139;SDS011;52945;51.908;8.364;2023-12-20T06:06:48;5.68;;;2.88;;
66139;SDS011;52945;51.908;8.364;2023-12-20T06:09:49;8.13;;;3.20;;
66139;SDS011;52945;51.908;8.364;2023-12-20T06:12:49;9.30;;;3.38;;
66139;SDS011;52945;51.908;8.364;2023-12-20T06:15:51;6.75;;;2.53;;
66139;SDS011;52945;51.908;8.364;2023-12-20T06:18:52;8.40;;;2.78;;
66139;SDS011;52945;51.908;8.364;2023-12-20T06:21:52;7.45;;;2.53;;
66139;SDS011;52945;51.908;8.364;2023-12-20T06:24:53;8.75;;;2.83;;
66139;SDS011;52945;51.908;8.364;2023-12-20T06:27:53;11.18;;;3.17;;
66139;SDS011;52945;51.908;8.364;2023-12-20T06:30:54;9.20;;;3.38;;
66139;SDS011;52945;51.908;8.364;2023-12-20T06:33:55;8.38;;;2.80;;
66139;SDS011;52945;51.908;8.364;2023-12-20T06:36:57;9.23;;;2.75;;
66139;SDS011;52945;51.908;8.364;2023-12-20T06:39:58;8.65;;;2.75;;
66139;SDS011;52945;51.908;8.364;2023-12-20T06:42:58;12.05;;;3.03;;
66139;SDS011;52945;51.908;8.364;2023-12-20T06:46:02;10.38;;;2.78;;
66139;SDS011;52945;51.908;8.364;2023-12-20T06:49:03;7.18;;;2.90;;
66139;SDS011;52945;51.908;8.364;2023-12-20T06:52:04;6.63;;;2.40;;
66139;SDS011;52945;51.908;8.364;2023-12-20T06:55:04;10.50;;;3.22;;
66139;SDS011;52945;51.908;8.364;2023-12-20T06:58:05;13.70;;;2.85;;
66139;SDS011;52945;51.908;8.364;2023-12-20T07:01:10;14.82;;;3.00;;
66139;SDS011;52945;51.908;8.364;2023-12-20T07:04:12;7.82;;;2.80;;
66139;SDS011;52945;51.908;8.364;2023-12-20T07:07:12;7.25;;;2.42;;
66139;SDS011;52945;51.908;8.364;2023-12-20T07:10:13;12.70;;;2.90;;
66139;SDS011;52945;51.908;8.364;2023-12-20T07:13:14;9.20;;;2.30;;
66139;SDS011;52945;51.908;8.364;2023-12-20T07:16:14;12.00;;;2.92;;
66139;SDS011;52945;51.908;8.364;2023-12-20T07:19:15;8.82;;;2.72;;
66139;SDS011;52945;51.908;8.364;2023-12-20T07:22:15;10.50;;;2.88;;
66139;SDS011;52945;51.908;8.364;2023-12-20T07:25:16;7.95;;;2.92;;
66139;SDS011;52945;51.908;8.364;2023-12-20T07:28:17;10.73;;;2.55;;
66139;SDS011;52945;51.908;8.364;2023-12-20T07:31:17;5.65;;;2.20;;
66139;SDS011;52945;51.908;8.364;2023-12-20T07:34:18;10.25;;;2.72;;
66139;SDS011;52945;51.908;8.364;2023-12-20T07:37:19;10.45;;;2.20;;
66139;SDS011;52945;51.908;8.364;2023-12-20T07:40:19;7.75;;;2.63;;
66139;SDS011;52945;51.908;8.364;2023-12-20T07:43:20;7.78;;;2.15;;
66139;SDS011;52945;51.908;8.364;2023-12-20T07:46:21;5.45;;;2.10;;
66139;SDS011;52945;51.908;8.364;2023-12-20T07:49:25;10.85;;;2.20;;
66139;SDS011;52945;51.908;8.364;2023-12-20T07:52:25;6.57;;;2.40;;
66139;SDS011;52945;51.908;8.364;2023-12-20T07:55:26;12.55;;;2.47;;
66139;SDS011;52945;51.908;8.364;2023-12-20T07:58:27;7.50;;;2.00;;
66139;SDS011;52945;51.908;8.364;2023-12-20T08:01:30;10.00;;;1.90;;
66139;SDS011;52945;51.908;8.364;2023-12-20T08:04:30;10.55;;;2.60;;
66139;SDS011;52945;51.908;8.364;2023-12-20T08:07:31;12.68;;;2.95;;
66139;SDS011;52945;51.908;8.364;2023-12-20T08:10:32;8.25;;;2.40;;
66139;SDS011;52945;51.908;8.364;2023-12-20T08:13:32;9.25;;;2.45;;
66139;SDS011;52945;51.908;8.364;2023-12-20T08:16:33;6.63;;;2.58;;
66139;SDS011;52945;51.908;8.364;2023-12-20T08:19:33;10.98;;;2.75;;
66139;SDS011;52945;51.908;8.364;2023-12-20T08:22:34;7.20;;;2.97;;
66139;SDS011;52945;51.908;8.364;2023-12-20T08:25:34;7.75;;;2.65;;
66139;SDS011;52945;51.908;8.364;2023-12-20T08:28:36;8.00;;;2.33;;
66139;SDS011;52945;51.908;8.364;2023-12-20T08:31:37;10.52;;;3.30;;
66139;SDS011;52945;51.908;8.364;2023-12-20T08:34:37;15.18;;;2.97;;
66139;SDS011;52945;51.908;8.364;2023-12-20T08:37:38;10.32;;;2.65;;
66139;SDS011;52945;51.908;8.364;2023-12-20T08:40:38;9.30;;;2.78;;
66139;SDS011;52945;51.908;8.364;2023-12-20T08:43:39;10.23;;;2.92;;
66139;SDS011;52945;51.908;8.364;2023-12-20T08:46:43;11.73;;;3.08;;
66139;SDS011;52945;51.908;8.364;2023-12-20T08:49:43;7.53;;;2.78;;
66139;SDS011;52945;51.908;8.364;2023-12-20T08:52:44;9.07;;;2.83;;
66139;SDS011;52945;51.908;8.364;2023-12-20T08:55:45;9.25;;;2.95;;
66139;SDS011;52945;51.908;8.364;2023-12-20T08:58:46;5.47;;;2.40;;
66139;SDS011;52945;51.908;8.364;2023-12-20T09:01:46;9.35;;;3.50;;
66139;SDS011;52945;51.908;8.364;2023-12-20T09:04:48;17.83;;;4.07;;
66139;SDS011;52945;51.908;8.364;2023-12-20T09:07:49;12.75;;;3.33;;
66139;SDS011;52945;51.908;8.364;2023-12-20T09:10:49;11.75;;;3.35;;
66139;SDS011;52945;51.908;8.364;2023-12-20T09:13:50;7.97;;;3.75;;
66139;SDS011;52945;51.908;8.364;2023-12-20T09:16:51;13.80;;;3.88;;
66139;SDS011;52945;51.908;8.364;2023-12-20T09:19:51;7.20;;;3.03;;
66139;SDS011;52945;51.908;8.364;2023-12-20T09:22:53;14.98;;;3.90;;
66139;SDS011;52945;51.908;8.364;2023-12-20T09:25:54;8.20;;;4.22;;
66139;SDS011;52945;51.908;8.364;2023-12-20T09:28:55;8.10;;;3.30;;
66139;SDS011;52945;51.908;8.364;2023-12-20T09:31:55;13.60;;;3.88;;
66139;SDS011;52945;51.908;8.364;2023-12-20T09:34:57;12.38;;;3.55;;
66139;SDS011;52945;51.908;8.364;2023-12-20T09:37:58;7.50;;;3.38;;
66139;SDS011;52945;51.908;8.364;2023-12-20T09:40:58;8.10;;;3.70;;
66139;SDS011;52945;51.908;8.364;2023-12-20T09:44:01;10.25;;;3.67;;
66139;SDS011;52945;51.908;8.364;2023-12-20T09:50:04;8.32;;;3.33;;
66139;SDS011;52945;51.908;8.364;2023-12-20T09:53:07;12.88;;;3.80;;
66139;SDS011;52945;51.908;8.364;2023-12-20T09:56:09;9.85;;;3.17;;
66139;SDS011;52945;51.908;8.364;2023-12-20T09:59:12;13.55;;;3.67;;
66139;SDS011;52945;51.908;8.364;2023-12-20T10:02:14;11.52;;;3.22;;
66139;SDS011;52945;51.908;8.364;2023-12-20T10:05:16;12.68;;;2.97;;
66139;SDS011;52945;51.908;8.364;2023-12-20T10:08:20;7.65;;;2.97;;
66139;SDS011;52945;51.908;8.364;2023-12-20T10:11:22;11.52;;;3.13;;
66139;SDS011;52945;51.908;8.364;2023-12-20T10:14:23;11.20;;;3.30;;
66139;SDS011;52945;51.908;8.364;2023-12-20T10:17:24;9.30;;;2.80;;
66139;SDS011;52945;51.908;8.364;2023-12-20T10:20:29;9.13;;;3.22;;
66139;SDS011;52945;51.908;8.364;2023-12-20T10:23:30;8.95;;;2.90;;
66139;SDS011;52945;51.908;8.364;2023-12-20T10:26:31;8.35;;;3.97;;
66139;SDS011;52945;51.908;8.364;2023-12-20T10:29:33;5.25;;;2.55;;
66139;SDS011;52945;51.908;8.364;2023-12-20T10:32:36;10.43;;;2.78;;
66139;SDS011;52945;51.908;8.364;2023-12-20T10:35:37;9.32;;;2.30;;
66139;SDS011;52945;51.908;8.364;2023-12-20T10:41:42;6.13;;;2.53;;
66139;SDS011;52945;51.908;8.364;2023-12-20T10:44:44;5.32;;;2.72;;
66139;SDS011;52945;51.908;8.364;2023-12-20T10:47:46;11.73;;;2.97;;
66139;SDS011;52945;51.908;8.364;2023-12-20T10:50:47;11.27;;;3.03;;
66139;SDS011;52945;51.908;8.364;2023-12-20T10:53:48;8.27;;;3.17;;
66139;SDS011;52945;51.908;8.364;2023-12-20T10:56:49;5.78;;;3.20;;
66139;SDS011;52945;51.908;8.364;2023-12-20T10:59:52;12.13;;;2.30;;
66139;SDS011;52945;51.908;8.364;2023-12-20T11:02:55;8.00;;;2.70;;
66139;SDS011;52945;51.908;8.364;2023-12-20T11:06:00;4.35;;;2.28;;
66139;SDS011;52945;51.908;8.364;2023-12-20T11:09:22;8.88;;;2.60;;
66139;SDS011;52945;51.908;8.364;2023-12-20T11:15:32;7.82;;;2.45;;
66139;SDS011;52945;51.908;8.364;2023-12-20T11:18:33;7.05;;;2.15;;
66139;SDS011;52945;51.908;8.364;2023-12-20T11:21:34;5.25;;;2.97;;
66139;SDS011;52945;51.908;8.364;2023-12-20T11:24:34;6.88;;;2.72;;
66139;SDS011;52945;51.908;8.364;2023-12-20T11:27:41;7.93;;;2.60;;
66139;SDS011;52945;51.908;8.364;2023-12-20T11:30:55;6.15;;;2.75;;
66139;SDS011;52945;51.908;8.364;2023-12-20T11:34:12;9.55;;;2.10;;
66139;SDS011;52945;51.908;8.364;2023-12-20T11:37:14;9.65;;;2.63;;
66139;SDS011;52945;51.908;8.364;2023-12-20T11:40:16;7.97;;;2.33;;
66139;SDS011;52945;51.908;8.364;2023-12-20T11:43:36;8.18;;;2.50;;
66139;SDS011;52945;51.908;8.364;2023-12-20T11:46:38;8.63;;;2.45;;
66139;SDS011;52945;51.908;8.364;2023-12-20T11:49:39;9.75;;;2.58;;
66139;SDS011;52945;51.908;8.364;2023-12-20T11:52:40;6.05;;;1.92;;
66139;SDS011;52945;51.908;8.364;2023-12-20T11:55:40;6.70;;;2.20;;
66139;SDS011;52945;51.908;8.364;2023-12-20T11:58:41;4.45;;;2.08;;
66139;SDS011;52945;51.908;8.364;2023-12-20T12:01:49;13.88;;;2.33;;
66139;SDS011;52945;51.908;8.364;2023-12-20T12:04:50;7.55;;;2.42;;
66139;SDS011;52945;51.908;8.364;2023-12-20T12:07:52;4.53;;;2.00;;
66139;SDS011;52945;51.908;8.364;2023-12-20T12:10:53;7.70;;;2.47;;
66139;SDS011;52945;51.908;8.364;2023-12-20T12:13:54;8.07;;;2.15;;
66139;SDS011;52945;51.908;8.364;2023-12-20T12:16:54;5.82;;;2.22;;
66139;SDS011;52945;51.908;8.364;2023-12-20T12:20:04;6.20;;;2.22;;
66139;SDS011;52945;51.908;8.364;2023-12-20T12:23:06;4.03;;;1.88;;
66139;SDS011;52945;51.908;8.364;2023-12-20T12:26:07;3.97;;;1.90;;
66139;SDS011;52945;51.908;8.364;2023-12-20T12:29:09;9.80;;;2.38;;
66139;SDS011;52945;51.908;8.364;2023-12-20T12:32:09;6.18;;;2.03;;
66139;SDS011;52945;51.908;8.364;2023-12-20T12:35:10;7.40;;;2.13;;
66139;SDS011;52945;51.908;8.364;2023-12-20T12:38:11;7.63;;;2.10;;
66139;SDS011;52945;51.908;8.364;2023-12-20T12:41:15;5.25;;;1.92;;
66139;SDS011;52945;51.908;8.364;2023-12-20T12:44:16;5.63;;;2.40;;
66139;SDS011;52945;51.908;8.364;2023-12-20T12:47:17;8.05;;;1.77;;
66139;SDS011;52945;51.908;8.364;2023-12-20T12:50:18;5.13;;;2.10;;
66139;SDS011;52945;51.908;8.364;2023-12-20T12:53:19;12.73;;;2.30;;
66139;SDS011;52945;51.908;8.364;2023-12-20T12:56:20;6.72;;;1.85;;
66139;SDS011;52945;51.908;8.364;2023-12-20T12:59:22;6.68;;;1.80;;
66139;SDS011;52945;51.908;8.364;2023-12-20T13:02:22;5.85;;;1.98;;
66139;SDS011;52945;51.908;8.364;2023-12-20T13:05:23;4.10;;;1.80;;
66139;SDS011;52945;51.908;8.364;2023-12-20T13:08:24;8.88;;;2.33;;
66139;SDS011;52945;51.908;8.364;2023-12-20T13:11:24;7.18;;;1.85;;
66139;SDS011;52945;51.908;8.364;2023-12-20T13:14:25;3.10;;;1.77;;
66139;SDS011;52945;51.908;8.364;2023-12-20T13:17:26;7.57;;;2.53;;
66139;SDS011;52945;51.908;8.364;2023-12-20T13:23:28;2.55;;;1.33;;
66139;SDS011;52945;51.908;8.364;2023-12-20T13:26:28;3.55;;;1.77;;
66139;SDS011;52945;51.908;8.364;2023-12-20T13:29:29;7.70;;;1.88;;
66139;SDS011;52945;51.908;8.364;2023-12-20T13:32:29;4.60;;;1.52;;
66139;SDS011;52945;51.908;8.364;2023-12-20T13:35:31;3.50;;;1.25;;
66139;SDS011;52945;51.908;8.364;2023-12-20T13:38:32;4.63;;;0.88;;
66139;SDS011;52945;51.908;8.364;2023-12-20T13:41:33;4.53;;;1.13;;
66139;SDS011;52945;51.908;8.364;2023-12-20T13:44:33;3.40;;;1.10;;
66139;SDS011;52945;51.908;8.364;2023-12-20T13:47:34;4.28;;;0.70;;
66139;SDS011;52945;51.908;8.364;2023-12-20T13:50:35;2.75;;;1.00;;
66139;SDS011;52945;51.908;8.364;2023-12-20T13:53:35;1.55;;;0.90;;
66139;SDS011;52945;51.908;8.364;2023-12-20T13:56:36;3.65;;;0.80;;
66139;SDS011;52945;51.908;8.364;2023-12-20T13:59:36;0.77;;;0.68;;
66139;SDS011;52945;51.908;8.364;2023-12-20T14:02:37;0.45;;;0.45;;
66139;SDS011;52945;51.908;8.364;2023-12-20T14:05:38;0.40;;;0.40;;
66139;SDS011;52945;51.908;8.364;2023-12-20T14:08:38;2.35;;;0.70;;
66139;SDS011;52945;51.908;8.364;2023-12-20T14:11:39;0.45;;;0.45;;
66139;SDS011;52945;51.908;8.364;2023-12-20T14:14:41;1.58;;;0.63;;
66139;SDS011;52945;51.908;8.364;2023-12-20T14:17:41;1.50;;;0.47;;
66139;SDS011;52945;51.908;8.364;2023-12-20T14:20:42;1.38;;;0.70;;
66139;SDS011;52945;51.908;8.364;2023-12-20T14:23:42;3.13;;;0.65;;
66139;SDS011;52945;51.908;8.364;2023-12-20T14:26:43;1.85;;;0.70;;
66139;SDS011;52945;51.908;8.364;2023-12-20T14:29:44;1.35;;;0.60;;
66139;SDS011;52945;51.908;8.364;2023-12-20T14:32:45;3.15;;;1.05;;
66139;SDS011;52945;51.908;8.364;2023-12-20T14:35:48;1.77;;;1.05;;
66139;SDS011;52945;51.908;8.364;2023-12-20T14:38:48;0.65;;;0.60;;
66139;SDS011;52945;51.908;8.364;2023-12-20T14:41:50;1.95;;;0.73;;
66139;SDS011;52945;51.908;8.364;2023-12-20T14:44:50;3.10;;;0.60;;
66139;SDS011;52945;51.908;8.364;2023-12-20T14:47:52;2.63;;;1.13;;
66139;SDS011;52945;51.908;8.364;2023-12-20T14:50:53;1.17;;;1.08;;
66139;SDS011;52945;51.908;8.364;2023-12-20T14:53:53;1.92;;;0.55;;
66139;SDS011;52945;51.908;8.364;2023-12-20T14:56:54;3.45;;;0.75;;
66139;SDS011;52945;51.908;8.364;2023-12-20T14:59:56;1.25;;;0.90;;
66139;SDS011;52945;51.908;8.364;2023-12-20T15:02:56;1.58;;;0.88;;
66139;SDS011;52945;51.908;8.364;2023-12-20T15:05:57;2.88;;;1.00;;
66139;SDS011;52945;51.908;8.364;2023-12-20T15:08:58;1.33;;;0.77;;
66139;SDS011;52945;51.908;8.364;2023-12-20T15:12:00;1.73;;;1.08;;
66139;SDS011;52945;51.908;8.364;2023-12-20T15:15:00;2.85;;;1.25;;
66139;SDS011;52945;51.908;8.364;2023-12-20T15:18:01;4.97;;;1.55;;
66139;SDS011;52945;51.908;8.364;2023-12-20T15:21:03;4.10;;;1.48;;
66139;SDS011;52945;51.908;8.364;2023-12-20T15:27:13;4.68;;;1.10;;
66139;SDS011;52945;51.908;8.364;2023-12-20T15:30:13;2.70;;;1.20;;
66139;SDS011;52945;51.908;8.364;2023-12-20T15:33:14;9.77;;;1.30;;
66139;SDS011;52945;51.908;8.364;2023-12-20T15:36:15;3.70;;;1.42;;
66139;SDS011;52945;51.908;8.364;2023-12-20T15:39:15;8.48;;;2.20;;
66139;SDS011;52945;51.908;8.364;2023-12-20T15:42:16;7.30;;;2.55;;
66139;SDS011;52945;51.908;8.364;2023-12-20T15:45:16;5.22;;;3.13;;
66139;SDS011;52945;51.908;8.364;2023-12-20T15:48:18;7.50;;;2.78;;
66139;SDS011;52945;51.908;8.364;2023-12-20T15:51:20;5.93;;;2.65;;
66139;SDS011;52945;51.908;8.364;2023-12-20T15:54:22;5.93;;;3.17;;
66139;SDS011;52945;51.908;8.364;2023-12-20T15:57:22;8.10;;;2.95;;
66139;SDS011;52945;51.908;8.364;2023-12-20T16:00:23;11.77;;;2.97;;
66139;SDS011;52945;51.908;8.364;2023-12-20T16:03:23;7.60;;;3.05;;
66139;SDS011;52945;51.908;8.364;2023-12-20T16:06:24;7.57;;;3.20;;
66139;SDS011;52945;51.908;8.364;2023-12-20T16:09:24;7.97;;;2.80;;
66139;SDS011;52945;51.908;8.364;2023-12-20T16:12:25;10.48;;;3.33;;
66139;SDS011;52945;51.908;8.364;2023-12-20T16:15:26;6.43;;;3.03;;
66139;SDS011;52945;51.908;8.364;2023-12-20T16:18:26;9.10;;;2.97;;
66139;SDS011;52945;51.908;8.364;2023-12-20T16:24:28;7.47;;;2.90;;
66139;SDS011;52945;51.908;8.364;2023-12-20T16:27:31;10.75;;;3.58;;
66139;SDS011;52945;51.908;8.364;2023-12-20T16:30:32;11.38;;;3.47;;
66139;SDS011;52945;51.908;8.364;2023-12-20T16:33:32;9.45;;;3.88;;
66139;SDS011;52945;51.908;8.364;2023-12-20T16:36:52;9.77;;;3.53;;
66139;SDS011;52945;51.908;8.364;2023-12-20T16:39:54;12.43;;;3.88;;
66139;SDS011;52945;51.908;8.364;2023-12-20T16:42:55;8.90;;;3.75;;
66139;SDS011;52945;51.908;8.364;2023-12-20T16:45:58;13.63;;;4.00;;
66139;SDS011;52945;51.908;8.364;2023-12-20T16:48:59;14.40;;;4.40;;
66139;SDS011;52945;51.908;8.364;2023-12-20T16:51:59;9.43;;;4.03;;
66139;SDS011;52945;51.908;8.364;2023-12-20T16:55:00;14.30;;;4.13;;
66139;SDS011;52945;51.908;8.364;2023-12-20T16:58:01;11.63;;;3.78;;
66139;SDS011;52945;51.908;8.364;2023-12-20T17:01:01;11.02;;;3.75;;
66139;SDS011;52945;51.908;8.364;2023-12-20T17:04:02;11.43;;;3.92;;
66139;SDS011;52945;51.908;8.364;2023-12-20T17:07:03;11.55;;;3.83;;
66139;SDS011;52945;51.908;8.364;2023-12-20T17:10:03;8.30;;;4.05;;
66139;SDS011;52945;51.908;8.364;2023-12-20T17:13:07;9.73;;;4.22;;
66139;SDS011;52945;51.908;8.364;2023-12-20T17:16:07;8.07;;;3.78;;
66139;SDS011;52945;51.908;8.364;2023-12-20T17:19:08;11.23;;;3.80;;
66139;SDS011;52945;51.908;8.364;2023-12-20T17:22:09;8.70;;;3.90;;
66139;SDS011;52945;51.908;8.364;2023-12-20T17:25:10;14.23;;;4.05;;
66139;SDS011;52945;51.908;8.364;2023-12-20T17:28:11;12.30;;;3.63;;
66139;SDS011;52945;51.908;8.364;2023-12-20T17:31:12;14.38;;;3.67;;
66139;SDS011;52945;51.908;8.364;2023-12-20T17:34:12;11.50;;;3.95;;
66139;SDS011;52945;51.908;8.364;2023-12-20T17:37:13;12.10;;;4.13;;
66139;SDS011;52945;51.908;8.364;2023-12-20T17:40:14;10.82;;;4.15;;
66139;SDS011;52945;51.908;8.364;2023-12-20T17:43:15;8.77;;;4.25;;
66139;SDS011;52945;51.908;8.364;2023-12-20T17:46:15;16.58;;;4.85;;
66139;SDS011;52945;51.908;8.364;2023-12-20T17:49:16;10.25;;;3.90;;
66139;SDS011;52945;51.908;8.364;2023-12-20T17:52:19;14.65;;;4.78;;
66139;SDS011;52945;51.908;8.364;2023-12-20T17:55:20;11.60;;;4.65;;
66139;SDS011;52945;51.908;8.364;2023-12-20T17:58:20;15.23;;;4.72;;
66139;SDS011;52945;51.908;8.364;2023-12-20T18:01:21;15.00;;;5.00;;
66139;SDS011;52945;51.908;8.364;2023-12-20T18:04:21;13.50;;;4.80;;
66139;SDS011;52945;51.908;8.364;2023-12-20T18:07:24;13.90;;;4.95;;
66139;SDS011;52945;51.908;8.364;2023-12-20T18:10:25;13.15;;;4.28;;
66139;SDS011;52945;51.908;8.364;2023-12-20T18:13:25;17.45;;;5.03;;
66139;SDS011;52945;51.908;8.364;2023-12-20T18:16:26;12.52;;;5.13;;
66139;SDS011;52945;51.908;8.364;2023-12-20T18:19:26;12.32;;;5.07;;
66139;SDS011;52945;51.908;8.364;2023-12-20T18:22:27;14.10;;;4.97;;
66139;SDS011;52945;51.908;8.364;2023-12-20T18:25:28;15.05;;;6.05;;
66139;SDS011;52945;51.908;8.364;2023-12-20T18:28:29;12.88;;;5.22;;
66139;SDS011;52945;51.908;8.364;2023-12-20T18:31:30;14.05;;;5.70;;